ADDS METAR Data INFO
IDs: Format: Raw Decoded Include TAF

Data at: 1517 UTC 23 Oct 2017

KRKD 231447Z AUTO 23006KT 10SM OVC005 12/11 A3037 RMK AO2 CIG 004V009
KRKD 231356Z AUTO 23007KT 10SM OVC003 11/11 A3038 RMK AO2 SLP291 T01110111
KRKD 231353Z AUTO 25006KT 9SM OVC001 11/11 A3038 RMK AO2
KRKD 231339Z AUTO 25006KT 2SM BR OVC001 11/11 A3039 RMK AO2 VIS 1 1/4V3
KRKD 231332Z AUTO 25007KT 1SM BR OVC001 11/11 A3038 RMK AO2
KRKD 231325Z AUTO 23005KT 1/2SM FG OVC001 11/11 A3038 RMK AO2
KRKD 231311Z AUTO 25004KT 1/4SM FG OVC001 11/11 A3038 RMK AO2
KRKD 231256Z AUTO 26004KT 1/2SM FG OVC001 11/11 A3038 RMK AO2 SLP290 T01060106
KRKD 231156Z AUTO 16004KT 1/2SM FG OVC001 11/11 A3037 RMK AO2 RAB04E24 SLP287 P0000 60000 T01060106 10122 20106 57000
KRKD 231153Z AUTO 00000KT 1/2SM FG OVC001 11/11 A3037 RMK AO2 RAB04E24 P0000
KRKD 231134Z AUTO 27003KT 1/4SM FG OVC001 11/11 A3037 RMK AO2 RAB04E24 P0000
KRKD 231110Z AUTO 20004KT 3/4SM -RA BR OVC001 11/11 A3037 RMK AO2 RAB04 P0000
KRKD 231056Z AUTO 21003KT 1SM BR OVC001 11/11 A3037 RMK AO2 SLP288 T01110111
KRKD 231051Z AUTO 00000KT 1 3/4SM BR OVC001 11/11 A3037 RMK AO2 VIS 1 1/4V4
KRKD 231045Z AUTO 22003KT 3SM BR OVC001 11/11 A3037 RMK AO2
KRKD 231026Z AUTO 17004KT 1 1/4SM BR OVC001 11/11 A3037 RMK AO2
KRKD 230956Z AUTO 00000KT 3/4SM BR OVC001 12/11 A3037 RMK AO2 SLP287 T01170111
KRKD 230934Z AUTO 00000KT 3/4SM BR OVC001 12/12 A3038 RMK AO2
KRKD 230927Z AUTO 00000KT 1 1/4SM BR OVC001 11/11 A3038 RMK AO2
KRKD 230856Z AUTO 10004KT 2 1/2SM BR OVC001 11/11 A3037 RMK AO2 SLP287 T01110111 56012
KRKD 230848Z AUTO 10003KT 1 3/4SM BR OVC001 12/11 A3037 RMK AO2 VIS 1 1/4V4
KRKD 230821Z AUTO 00000KT 4SM BR OVC001 12/11 A3037 RMK AO2
KRKD 230807Z AUTO 11004KT 2SM BR OVC001 12/11 A3037 RMK AO2
KRKD 230756Z AUTO 08003KT 1SM BR OVC001 12/12 A3038 RMK AO2 SLP288 T01170117
KRKD 230745Z AUTO 12003KT 1 3/4SM BR OVC001 12/12 A3038 RMK AO2
KRKD 230735Z AUTO 12003KT 3SM BR OVC001 12/12 A3038 RMK AO2
KRKD 230732Z AUTO 10004KT 1 3/4SM BR OVC001 12/12 A3038 RMK AO2
KRKD 230720Z AUTO 11004KT 1SM BR OVC001 12/12 A3039 RMK AO2
KRKD 230656Z AUTO 00000KT 1 1/2SM BR OVC001 12/12 A3039 RMK AO2 VIS 1V2 1/2 SLP294 T01170117
KRKD 230556Z AUTO 14003KT 3SM BR OVC001 12/12 A3041 RMK AO2 SLP298 60000 T01170117 10128 20106 55004
KRKD 230553Z AUTO 15003KT 3SM BR OVC001 12/12 A3041 RMK AO2
KRKD 230514Z AUTO 11005KT 2SM BR OVC001 12/12 A3041 RMK AO2
KRKD 230456Z AUTO 13004KT 3SM BR OVC003 12/12 A3042 RMK AO2 SLP302 T01220122 401500067
KRKD 230435Z AUTO 11005KT 3SM BR OVC003 12/12 A3042 RMK AO2
KRKD 230425Z AUTO 12004KT 1 3/4SM BR OVC003 12/12 A3042 RMK AO2
KRKD 230413Z AUTO 13003KT 2SM BR OVC003 12/12 A3043 RMK AO2
KRKD 230356Z AUTO 11004KT 1 3/4SM BR OVC003 12/12 A3043 RMK AO2 RAB36E55 SLP305 P0000 T01220122
KRKD 230330Z AUTO 11007KT 1 3/4SM BR OVC003 12/12 A3043 RMK AO2
KRKD 230319Z AUTO 12005KT 5SM BR OVC003 12/12 A3043 RMK AO2
KRKD 230256Z AUTO 11007KT 10SM OVC005 13/12 A3043 RMK AO2 CIG 004V007 SLP305 T01280117 58005
KRKD 230220Z AUTO 09006KT 10SM OVC009 12/11 A3044 RMK AO2
KRKD 230156Z AUTO 08004KT 10SM OVC011 11/09 A3044 RMK AO2 SLP309 T01110094
KRKD 230056Z AUTO 05005KT 10SM OVC013 11/09 A3044 RMK AO2 SLP311 T01060089
KRKD 222356Z AUTO 07006KT 10SM BKN013 11/09 A3044 RMK AO2 SLP311 T01110089 10150 20111 58002
KRKD 222354Z AUTO 08006KT 10SM BKN013 11/09 A3044 RMK AO2
KRKD 222256Z AUTO 08006KT 10SM CLR 11/08 A3045 RMK AO2 SLP314 T01110083
KRKD 222156Z AUTO 09008KT 10SM CLR 12/08 A3045 RMK AO2 SLP313 T01170078
KRKD 222056Z AUTO 07007KT 10SM CLR 13/08 A3045 RMK AO2 SLP314 T01280083 53000
KRKD 221956Z AUTO 09007KT 10SM CLR 14/08 A3045 RMK AO2 SLP312 T01390083
KRKD 221856Z AUTO 09007KT 10SM CLR 15/08 A3045 RMK AO2 SLP313 T01500078
KRKD 221756Z AUTO 07008KT 10SM CLR 15/08 A3045 RMK AO2 SLP314 T01500083 10150 20111 58002
KRKD 221656Z AUTO 07009KT 10SM CLR 14/08 A3045 RMK AO2 SLP314 T01440083
KRKD 221556Z AUTO 05009KT 10SM CLR 13/08 A3047 RMK AO2 SLP320 T01330078
KRKD 221456Z AUTO 05010KT 10SM CLR 14/08 A3046 RMK AO2 SLP316 T01390083 50010
KRKD 221356Z AUTO 05008KT 010V080 10SM CLR 13/09 A3046 RMK AO2 SLP318 T01330089
KRKD 221256Z AUTO 05008KT 10SM CLR 12/09 A3045 RMK AO2 SLP313 T01220094
KRKD 221156Z AUTO 05008KT 10SM CLR 11/10 A3043 RMK AO2 SLP306 T01110100 10111 20100 53019
KRKD 221056Z AUTO 04007KT 10SM CLR 11/09 A3040 RMK AO2 SLP297 T01060094
KRKD 220956Z AUTO 04005KT 10SM CLR 11/09 A3039 RMK AO2 SLP293 T01060094
KRKD 220856Z AUTO 04007KT 10SM CLR 11/11 A3037 RMK AO2 SLP286 T01110106 51015
KRKD 220756Z AUTO 04004KT 10SM CLR 11/11 A3036 RMK AO2 SLP281 T01060106
KRKD 220656Z AUTO VRB04KT 10SM CLR 11/11 A3034 RMK AO2 SLP276 T01110106
KRKD 220556Z AUTO 02004KT 10SM CLR 10/10 A3033 RMK AO2 SLP271 T01000100 10100 20067 51006
KRKD 220456Z AUTO 00000KT 7SM CLR 07/07 A3032 RMK AO2 SLP269 T00720067 401720033
KRKD 220356Z AUTO 00000KT 10SM CLR 08/07 A3032 RMK AO2 SLP268 T00780072